logo
Search for airport 
image banner adimage banner adimage banner ad
image banner ad

LI-AO03 - Campo volo Chatelair

Located in Nus, Italy

ICAO - , IATA -

Data provided by Airmate  

General information

Coordinates: N45°44'24" E7°28'49"
Elevation is 1650 feet MSL.
 
View others Airports in Abruzzi

Operational data

Special qualification required
Current time UTC:
Current local time:
Weather at : LIMW - Aosta ( 9 km )
METAR: LIMW 231650Z 31008KT 250V010 CAVOK 32/10 Q1016
TAF: TAF LIMW 231400Z 2315/2324 30014KT 9999 FEW090 TEMPO 2315/2317 30016G26KT BECMG 2318/2320 VRB05KT
View NOTAMs / SUP AIP / TFR affecting this airport [VIEW]
Communications frequencies: [VIEW]

Runways:

RWY identifierQFULength (ft)Width (ft)SurfaceLDA (ft)
10147665GRASS
28147665GRASS

Airport contact information

Address: Nus Italy

Satellite view of LI-AO03